sensor_id;sensor_type;location;lat;lon;timestamp;pressure;altitude;pressure_sealevel;temperature;humidity
19259;BME280;9763;48.780;9.212;2023-08-06T00:00:06;97612.69;;;21.31;59.64
19259;BME280;9763;48.780;9.212;2023-08-06T00:03:32;97603.06;;;21.30;59.67
19259;BME280;9763;48.780;9.212;2023-08-06T00:06:56;97598.34;;;21.25;59.61
19259;BME280;9763;48.780;9.212;2023-08-06T00:10:20;97604.06;;;21.14;59.84
19259;BME280;9763;48.780;9.212;2023-08-06T00:13:45;97597.81;;;21.00;59.47
19259;BME280;9763;48.780;9.212;2023-08-06T00:17:10;97590.69;;;20.86;59.58
19259;BME280;9763;48.780;9.212;2023-08-06T00:20:34;97592.16;;;20.74;59.67
19259;BME280;9763;48.780;9.212;2023-08-06T00:23:57;97588.13;;;20.63;60.03
19259;BME280;9763;48.780;9.212;2023-08-06T00:27:21;97590.22;;;20.53;60.14
19259;BME280;9763;48.780;9.212;2023-08-06T00:30:46;97598.28;;;20.45;59.74
19259;BME280;9763;48.780;9.212;2023-08-06T00:34:10;97595.03;;;20.35;60.00
19259;BME280;9763;48.780;9.212;2023-08-06T00:37:33;97591.25;;;20.29;60.21
19259;BME280;9763;48.780;9.212;2023-08-06T00:40:57;97595.81;;;20.21;60.12
19259;BME280;9763;48.780;9.212;2023-08-06T00:44:21;97588.97;;;20.11;59.86
19259;BME280;9763;48.780;9.212;2023-08-06T00:47:47;97593.16;;;20.06;60.21
19259;BME280;9763;48.780;9.212;2023-08-06T00:51:11;97586.75;;;20.00;59.78
19259;BME280;9763;48.780;9.212;2023-08-06T00:54:35;97573.75;;;19.91;59.63
19259;BME280;9763;48.780;9.212;2023-08-06T00:57:59;97578.88;;;19.92;60.24
19259;BME280;9763;48.780;9.212;2023-08-06T01:01:24;97574.75;;;19.90;60.44
19259;BME280;9763;48.780;9.212;2023-08-06T01:04:49;97569.34;;;19.83;60.42
19259;BME280;9763;48.780;9.212;2023-08-06T01:08:27;97570.25;;;19.75;60.49
19259;BME280;9763;48.780;9.212;2023-08-06T01:12:05;97569.28;;;19.68;60.70
19259;BME280;9763;48.780;9.212;2023-08-06T01:15:42;97557.47;;;19.56;60.26
19259;BME280;9763;48.780;9.212;2023-08-06T01:19:16;97559.78;;;19.59;60.31
19259;BME280;9763;48.780;9.212;2023-08-06T01:22:41;97559.78;;;19.59;60.11
19259;BME280;9763;48.780;9.212;2023-08-06T01:26:15;97552.66;;;19.60;60.51
19259;BME280;9763;48.780;9.212;2023-08-06T01:29:48;97564.38;;;19.65;60.74
19259;BME280;9763;48.780;9.212;2023-08-06T01:33:19;97551.06;;;19.73;60.31
19259;BME280;9763;48.780;9.212;2023-08-06T01:36:45;97547.31;;;19.83;59.94
19259;BME280;9763;48.780;9.212;2023-08-06T01:40:13;97547.63;;;19.88;60.41
19259;BME280;9763;48.780;9.212;2023-08-06T01:43:37;97540.78;;;19.93;59.64
19259;BME280;9763;48.780;9.212;2023-08-06T01:47:00;97537.13;;;19.94;59.87
19259;BME280;9763;48.780;9.212;2023-08-06T01:50:24;97534.59;;;20.01;59.99
19259;BME280;9763;48.780;9.212;2023-08-06T01:53:48;97537.06;;;20.02;59.67
19259;BME280;9763;48.780;9.212;2023-08-06T01:57:14;97526.19;;;19.97;59.45
19259;BME280;9763;48.780;9.212;2023-08-06T02:00:38;97528.66;;;19.99;59.31
19259;BME280;9763;48.780;9.212;2023-08-06T02:04:02;97528.34;;;19.94;59.63
19259;BME280;9763;48.780;9.212;2023-08-06T02:07:26;97491.16;;;19.72;59.81
19259;BME280;9763;48.780;9.212;2023-08-06T02:10:49;97510.00;;;19.77;59.89
19259;BME280;9763;48.780;9.212;2023-08-06T02:14:15;97510.03;;;19.69;60.01
19259;BME280;9763;48.780;9.212;2023-08-06T02:17:38;97508.28;;;19.62;59.43
19259;BME280;9763;48.780;9.212;2023-08-06T02:21:02;97504.91;;;19.53;59.73
19259;BME280;9763;48.780;9.212;2023-08-06T02:24:26;97487.75;;;19.41;60.11
19259;BME280;9763;48.780;9.212;2023-08-06T02:27:49;97489.28;;;19.35;59.83
19259;BME280;9763;48.780;9.212;2023-08-06T02:31:14;97497.78;;;19.31;59.43
19259;BME280;9763;48.780;9.212;2023-08-06T02:34:38;97492.00;;;19.27;59.80
19259;BME280;9763;48.780;9.212;2023-08-06T02:38:02;97488.88;;;19.24;59.46
19259;BME280;9763;48.780;9.212;2023-08-06T02:41:26;97495.53;;;19.20;59.46
19259;BME280;9763;48.780;9.212;2023-08-06T02:44:52;97483.47;;;19.17;59.96
19259;BME280;9763;48.780;9.212;2023-08-06T02:48:18;97480.34;;;19.14;60.17
19259;BME280;9763;48.780;9.212;2023-08-06T02:51:45;97477.41;;;19.08;59.92
19259;BME280;9763;48.780;9.212;2023-08-06T02:55:09;97468.84;;;19.06;59.54
19259;BME280;9763;48.780;9.212;2023-08-06T02:58:38;97457.78;;;19.03;60.08
19259;BME280;9763;48.780;9.212;2023-08-06T03:02:10;97460.78;;;19.00;60.09
19259;BME280;9763;48.780;9.212;2023-08-06T03:05:52;97454.84;;;18.98;60.04
19259;BME280;9763;48.780;9.212;2023-08-06T03:09:27;97455.66;;;18.98;59.67
19259;BME280;9763;48.780;9.212;2023-08-06T03:12:53;97454.50;;;19.01;59.92
19259;BME280;9763;48.780;9.212;2023-08-06T03:16:17;97450.34;;;19.06;59.68
19259;BME280;9763;48.780;9.212;2023-08-06T03:19:41;97447.78;;;19.13;59.70
19259;BME280;9763;48.780;9.212;2023-08-06T03:23:08;97436.31;;;19.21;59.76
19259;BME280;9763;48.780;9.212;2023-08-06T03:26:32;97431.97;;;19.28;59.75
19259;BME280;9763;48.780;9.212;2023-08-06T03:29:56;97434.72;;;19.34;59.26
19259;BME280;9763;48.780;9.212;2023-08-06T03:33:22;97439.47;;;19.39;59.89
19259;BME280;9763;48.780;9.212;2023-08-06T03:36:45;97441.41;;;19.45;59.14
19259;BME280;9763;48.780;9.212;2023-08-06T03:40:11;97455.59;;;19.52;59.13
19259;BME280;9763;48.780;9.212;2023-08-06T03:43:34;97444.03;;;19.53;59.43
19259;BME280;9763;48.780;9.212;2023-08-06T03:47:02;97446.00;;;19.51;59.24
19259;BME280;9763;48.780;9.212;2023-08-06T03:50:26;97444.69;;;19.47;60.17
19259;BME280;9763;48.780;9.212;2023-08-06T03:53:50;97441.41;;;19.45;59.91
19259;BME280;9763;48.780;9.212;2023-08-06T03:57:16;97444.03;;;19.45;59.91
19259;BME280;9763;48.780;9.212;2023-08-06T04:00:39;97439.78;;;19.44;60.29
19259;BME280;9763;48.780;9.212;2023-08-06T04:04:03;97450.53;;;19.42;59.72
19259;BME280;9763;48.780;9.212;2023-08-06T04:07:27;97438.72;;;19.30;59.97
19259;BME280;9763;48.780;9.212;2023-08-06T04:10:52;97432.63;;;19.07;61.95
19259;BME280;9763;48.780;9.212;2023-08-06T04:14:17;97440.75;;;19.05;63.89
19259;BME280;9763;48.780;9.212;2023-08-06T04:17:42;97448.19;;;19.02;65.06
19259;BME280;9763;48.780;9.212;2023-08-06T04:21:06;97468.53;;;19.01;66.22
19259;BME280;9763;48.780;9.212;2023-08-06T04:24:30;97470.84;;;19.04;67.29
19259;BME280;9763;48.780;9.212;2023-08-06T04:27:54;97469.03;;;19.05;67.34
19259;BME280;9763;48.780;9.212;2023-08-06T04:31:19;97468.53;;;19.01;67.95
19259;BME280;9763;48.780;9.212;2023-08-06T04:34:43;97468.06;;;18.98;68.38
19259;BME280;9763;48.780;9.212;2023-08-06T04:38:07;97468.53;;;19.01;68.97
19259;BME280;9763;48.780;9.212;2023-08-06T04:41:30;97470.19;;;19.02;68.85
19259;BME280;9763;48.780;9.212;2023-08-06T04:44:54;97461.31;;;18.95;69.06
19259;BME280;9763;48.780;9.212;2023-08-06T04:48:19;97471.69;;;18.97;69.32
19259;BME280;9763;48.780;9.212;2023-08-06T04:51:43;97466.94;;;18.92;70.19
19259;BME280;9763;48.780;9.212;2023-08-06T04:55:08;97469.94;;;18.89;70.57
19259;BME280;9763;48.780;9.212;2023-08-06T04:58:32;97466.47;;;18.89;70.48
19259;BME280;9763;48.780;9.212;2023-08-06T05:01:56;97478.88;;;18.88;70.27
19259;BME280;9763;48.780;9.212;2023-08-06T05:05:21;97471.75;;;18.89;71.18
19259;BME280;9763;48.780;9.212;2023-08-06T05:08:45;97475.88;;;18.91;71.17
19259;BME280;9763;48.780;9.212;2023-08-06T05:12:09;97479.63;;;18.97;71.98
19259;BME280;9763;48.780;9.212;2023-08-06T05:15:33;97476.47;;;19.01;71.48
19259;BME280;9763;48.780;9.212;2023-08-06T05:18:57;97464.59;;;18.97;71.47
19259;BME280;9763;48.780;9.212;2023-08-06T05:22:22;97472.00;;;19.02;72.12
19259;BME280;9763;48.780;9.212;2023-08-06T05:25:45;97477.19;;;18.95;71.61
19259;BME280;9763;48.780;9.212;2023-08-06T05:29:09;97472.41;;;18.91;71.72
19259;BME280;9763;48.780;9.212;2023-08-06T05:32:33;97480.84;;;18.94;72.36
19259;BME280;9763;48.780;9.212;2023-08-06T05:35:56;97477.22;;;19.10;72.30
19259;BME280;9763;48.780;9.212;2023-08-06T05:39:21;97476.88;;;19.59;73.00
19259;BME280;9763;48.780;9.212;2023-08-06T05:42:45;97484.91;;;20.03;71.95
19259;BME280;9763;48.780;9.212;2023-08-06T05:46:08;97486.94;;;20.45;71.42
19259;BME280;9763;48.780;9.212;2023-08-06T05:49:32;97480.63;;;20.82;70.92
19259;BME280;9763;48.780;9.212;2023-08-06T05:52:56;97479.28;;;21.07;69.33
19259;BME280;9763;48.780;9.212;2023-08-06T05:56:24;97483.94;;;21.20;68.28
19259;BME280;9763;48.780;9.212;2023-08-06T05:59:48;97485.81;;;21.26;67.54
19259;BME280;9763;48.780;9.212;2023-08-06T06:03:11;97485.41;;;21.23;65.84
19259;BME280;9763;48.780;9.212;2023-08-06T06:06:35;97491.41;;;21.16;65.39
19259;BME280;9763;48.780;9.212;2023-08-06T06:09:58;97492.19;;;21.10;64.55
19259;BME280;9763;48.780;9.212;2023-08-06T06:13:24;97493.22;;;20.95;64.46
19259;BME280;9763;48.780;9.212;2023-08-06T06:16:48;97490.19;;;20.76;64.68
19259;BME280;9763;48.780;9.212;2023-08-06T06:20:11;97494.50;;;20.63;64.16
19259;BME280;9763;48.780;9.212;2023-08-06T06:23:35;97492.75;;;20.55;64.77
19259;BME280;9763;48.780;9.212;2023-08-06T06:26:59;97498.88;;;20.56;64.39
19259;BME280;9763;48.780;9.212;2023-08-06T06:30:24;97505.84;;;20.57;63.61
19259;BME280;9763;48.780;9.212;2023-08-06T06:33:47;97502.53;;;20.55;63.50
19259;BME280;9763;48.780;9.212;2023-08-06T06:37:11;97511.31;;;20.55;63.56
19259;BME280;9763;48.780;9.212;2023-08-06T06:40:34;97510.31;;;20.56;63.12
19259;BME280;9763;48.780;9.212;2023-08-06T06:43:58;97516.25;;;20.58;62.88
19259;BME280;9763;48.780;9.212;2023-08-06T06:47:23;97512.06;;;20.64;63.40
19259;BME280;9763;48.780;9.212;2023-08-06T06:50:47;97510.13;;;20.72;63.22
19259;BME280;9763;48.780;9.212;2023-08-06T06:54:11;97512.09;;;20.85;63.15
19259;BME280;9763;48.780;9.212;2023-08-06T06:57:35;97514.66;;;21.14;63.23
19259;BME280;9763;48.780;9.212;2023-08-06T07:00:58;97518.56;;;21.33;62.87
19259;BME280;9763;48.780;9.212;2023-08-06T07:04:24;97512.69;;;21.38;62.38
19259;BME280;9763;48.780;9.212;2023-08-06T07:07:48;97518.75;;;21.32;62.38
19259;BME280;9763;48.780;9.212;2023-08-06T07:11:11;97519.31;;;21.27;62.45
19259;BME280;9763;48.780;9.212;2023-08-06T07:14:35;97514.84;;;21.28;62.56
19259;BME280;9763;48.780;9.212;2023-08-06T07:17:59;97526.41;;;21.20;61.79
19259;BME280;9763;48.780;9.212;2023-08-06T07:21:24;97528.53;;;20.95;62.56
19259;BME280;9763;48.780;9.212;2023-08-06T07:24:47;97530.06;;;20.68;62.95
19259;BME280;9763;48.780;9.212;2023-08-06T07:28:11;97527.50;;;20.45;63.44
19259;BME280;9763;48.780;9.212;2023-08-06T07:31:35;97527.75;;;20.21;63.60
19259;BME280;9763;48.780;9.212;2023-08-06T07:34:58;97527.47;;;20.01;63.80
19259;BME280;9763;48.780;9.212;2023-08-06T07:38:24;97519.41;;;19.80;64.41
19259;BME280;9763;48.780;9.212;2023-08-06T07:41:48;97540.97;;;19.69;65.92
19259;BME280;9763;48.780;9.212;2023-08-06T07:45:13;97538.06;;;19.64;65.83
19259;BME280;9763;48.780;9.212;2023-08-06T07:48:37;97531.44;;;19.68;66.39
19259;BME280;9763;48.780;9.212;2023-08-06T07:52:01;97530.00;;;19.80;65.80
19259;BME280;9763;48.780;9.212;2023-08-06T07:55:26;97522.88;;;19.95;65.58
19259;BME280;9763;48.780;9.212;2023-08-06T07:58:50;97540.44;;;20.11;64.60
19259;BME280;9763;48.780;9.212;2023-08-06T08:02:14;97526.75;;;20.22;64.63
19259;BME280;9763;48.780;9.212;2023-08-06T08:05:38;97531.00;;;20.46;64.36
19259;BME280;9763;48.780;9.212;2023-08-06T08:09:02;97542.59;;;20.74;63.78
19259;BME280;9763;48.780;9.212;2023-08-06T08:12:27;97523.31;;;21.02;63.41
19259;BME280;9763;48.780;9.212;2023-08-06T08:15:56;97517.06;;;21.24;62.45
19259;BME280;9763;48.780;9.212;2023-08-06T08:19:20;97523.03;;;21.75;62.81
19259;BME280;9763;48.780;9.212;2023-08-06T08:22:45;97524.22;;;22.22;61.58
19259;BME280;9763;48.780;9.212;2023-08-06T08:26:08;97509.78;;;22.31;61.41
19259;BME280;9763;48.780;9.212;2023-08-06T08:29:33;97510.50;;;22.53;61.52
19259;BME280;9763;48.780;9.212;2023-08-06T08:32:57;97518.09;;;23.04;61.19
19259;BME280;9763;48.780;9.212;2023-08-06T08:36:21;97517.63;;;24.00;60.73
19259;BME280;9763;48.780;9.212;2023-08-06T08:39:44;97511.56;;;25.16;59.45
19259;BME280;9763;48.780;9.212;2023-08-06T08:43:09;97513.72;;;25.32;58.24
19259;BME280;9763;48.780;9.212;2023-08-06T08:46:37;97509.34;;;25.06;57.90
19259;BME280;9763;48.780;9.212;2023-08-06T08:50:02;97507.19;;;24.83;57.56
19259;BME280;9763;48.780;9.212;2023-08-06T08:53:28;97526.72;;;24.70;57.24
19259;BME280;9763;48.780;9.212;2023-08-06T08:56:52;97517.97;;;24.44;57.16
19259;BME280;9763;48.780;9.212;2023-08-06T09:00:17;97521.91;;;24.08;57.59
19259;BME280;9763;48.780;9.212;2023-08-06T09:03:44;97516.81;;;23.74;57.70
19259;BME280;9763;48.780;9.212;2023-08-06T09:07:13;97523.50;;;23.43;58.34
19259;BME280;9763;48.780;9.212;2023-08-06T09:10:43;97526.63;;;22.86;61.16
19259;BME280;9763;48.780;9.212;2023-08-06T09:14:07;97529.63;;;22.35;63.42
19259;BME280;9763;48.780;9.212;2023-08-06T09:17:32;97530.31;;;22.16;65.25
19259;BME280;9763;48.780;9.212;2023-08-06T09:20:58;97542.25;;;21.99;66.79
19259;BME280;9763;48.780;9.212;2023-08-06T09:24:21;97539.03;;;21.82;67.31
19259;BME280;9763;48.780;9.212;2023-08-06T09:27:46;97529.03;;;21.84;68.40
19259;BME280;9763;48.780;9.212;2023-08-06T09:31:10;97537.56;;;22.28;69.68
19259;BME280;9763;48.780;9.212;2023-08-06T09:34:34;97528.91;;;22.54;68.92
19259;BME280;9763;48.780;9.212;2023-08-06T09:38:06;97528.38;;;22.66;67.95
19259;BME280;9763;48.780;9.212;2023-08-06T09:41:31;97539.13;;;22.85;66.33
19259;BME280;9763;48.780;9.212;2023-08-06T09:45:05;97538.75;;;22.95;65.69
19259;BME280;9763;48.780;9.212;2023-08-06T09:48:30;97536.16;;;22.74;64.60
19259;BME280;9763;48.780;9.212;2023-08-06T09:51:55;97529.13;;;22.59;63.75
19259;BME280;9763;48.780;9.212;2023-08-06T09:55:23;97535.13;;;22.68;62.53
19259;BME280;9763;48.780;9.212;2023-08-06T09:58:48;97536.16;;;22.74;62.21
19259;BME280;9763;48.780;9.212;2023-08-06T10:02:13;97542.50;;;22.73;61.43
19259;BME280;9763;48.780;9.212;2023-08-06T10:05:38;97537.34;;;22.58;60.87
19259;BME280;9763;48.780;9.212;2023-08-06T10:09:03;97534.53;;;22.32;60.72
19259;BME280;9763;48.780;9.212;2023-08-06T10:12:34;97546.91;;;22.18;61.13
19259;BME280;9763;48.780;9.212;2023-08-06T10:15:58;97562.06;;;21.96;61.92
19259;BME280;9763;48.780;9.212;2023-08-06T10:19:24;97564.66;;;21.68;62.43
19259;BME280;9763;48.780;9.212;2023-08-06T10:23:01;97569.97;;;21.47;65.18
19259;BME280;9763;48.780;9.212;2023-08-06T10:26:29;97531.47;;;21.00;66.28
19259;BME280;9763;48.780;9.212;2023-08-06T10:29:54;97577.78;;;20.98;67.37
19259;BME280;9763;48.780;9.212;2023-08-06T10:33:20;97581.38;;;20.75;68.17
19259;BME280;9763;48.780;9.212;2023-08-06T10:36:45;97576.88;;;20.61;68.87
19259;BME280;9763;48.780;9.212;2023-08-06T10:40:09;97587.78;;;20.52;69.65
19259;BME280;9763;48.780;9.212;2023-08-06T10:43:34;97577.88;;;20.45;69.72
19259;BME280;9763;48.780;9.212;2023-08-06T10:47:28;97567.19;;;20.68;70.96
19259;BME280;9763;48.780;9.212;2023-08-06T10:50:52;97577.13;;;20.81;71.74
19259;BME280;9763;48.780;9.212;2023-08-06T10:54:16;97584.09;;;20.82;71.11
19259;BME280;9763;48.780;9.212;2023-08-06T10:57:40;97582.72;;;20.71;71.43
19259;BME280;9763;48.780;9.212;2023-08-06T11:01:04;97583.19;;;20.75;71.68
19259;BME280;9763;48.780;9.212;2023-08-06T11:04:32;97592.88;;;20.82;70.83
19259;BME280;9763;48.780;9.212;2023-08-06T11:07:56;97589.22;;;20.83;70.04
19259;BME280;9763;48.780;9.212;2023-08-06T11:11:20;97592.97;;;20.74;69.33
19259;BME280;9763;48.780;9.212;2023-08-06T11:14:50;97590.03;;;20.69;68.53
19259;BME280;9763;48.780;9.212;2023-08-06T11:18:14;97597.47;;;20.74;66.63
19259;BME280;9763;48.780;9.212;2023-08-06T11:21:39;97601.47;;;20.84;65.50
19259;BME280;9763;48.780;9.212;2023-08-06T11:25:07;97591.34;;;20.73;65.16
19259;BME280;9763;48.780;9.212;2023-08-06T11:28:31;97619.28;;;20.91;64.36
19259;BME280;9763;48.780;9.212;2023-08-06T11:32:04;97616.22;;;20.87;62.69
19259;BME280;9763;48.780;9.212;2023-08-06T11:35:28;97611.09;;;20.85;62.09
19259;BME280;9763;48.780;9.212;2023-08-06T11:38:54;97626.19;;;21.00;62.70
19259;BME280;9763;48.780;9.212;2023-08-06T11:42:17;97617.34;;;21.14;62.12
19259;BME280;9763;48.780;9.212;2023-08-06T11:45:41;97627.59;;;21.17;61.79
19259;BME280;9763;48.780;9.212;2023-08-06T11:49:05;97628.63;;;21.31;60.89
19259;BME280;9763;48.780;9.212;2023-08-06T11:52:28;97634.94;;;21.30;60.42
19259;BME280;9763;48.780;9.212;2023-08-06T11:55:54;97640.00;;;21.25;60.25
19259;BME280;9763;48.780;9.212;2023-08-06T11:59:17;97649.84;;;21.16;60.35
19259;BME280;9763;48.780;9.212;2023-08-06T12:02:46;97643.34;;;21.04;60.05
19259;BME280;9763;48.780;9.212;2023-08-06T12:06:12;97639.63;;;20.83;60.02
19259;BME280;9763;48.780;9.212;2023-08-06T12:09:35;97665.03;;;20.63;60.21
19259;BME280;9763;48.780;9.212;2023-08-06T12:13:01;97657.41;;;20.45;60.23
19259;BME280;9763;48.780;9.212;2023-08-06T12:16:28;97678.72;;;20.37;59.98
19259;BME280;9763;48.780;9.212;2023-08-06T12:19:52;97684.00;;;20.37;60.66
19259;BME280;9763;48.780;9.212;2023-08-06T12:23:16;97688.97;;;20.40;60.69
19259;BME280;9763;48.780;9.212;2023-08-06T12:26:39;97685.50;;;20.40;60.24
19259;BME280;9763;48.780;9.212;2023-08-06T12:30:06;97686.50;;;20.31;59.36
19259;BME280;9763;48.780;9.212;2023-08-06T12:33:30;97693.47;;;20.32;59.64
19259;BME280;9763;48.780;9.212;2023-08-06T12:36:53;97696.09;;;20.40;59.36
19259;BME280;9763;48.780;9.212;2023-08-06T12:40:17;97699.13;;;20.52;59.57
19259;BME280;9763;48.780;9.212;2023-08-06T12:43:57;97711.13;;;20.62;59.43
19259;BME280;9763;48.780;9.212;2023-08-06T12:47:22;97690.34;;;20.66;58.99
19259;BME280;9763;48.780;9.212;2023-08-06T12:50:45;97689.50;;;20.88;58.81
19259;BME280;9763;48.780;9.212;2023-08-06T12:54:09;97708.78;;;21.26;57.98
19259;BME280;9763;48.780;9.212;2023-08-06T12:57:33;97700.13;;;21.68;57.41
19259;BME280;9763;48.780;9.212;2023-08-06T13:01:17;97696.66;;;22.04;56.27
19259;BME280;9763;48.780;9.212;2023-08-06T13:04:43;97722.22;;;22.05;57.01
19259;BME280;9763;48.780;9.212;2023-08-06T13:08:06;97728.75;;;21.87;56.04
19259;BME280;9763;48.780;9.212;2023-08-06T13:11:30;97721.34;;;21.83;56.14
19259;BME280;9763;48.780;9.212;2023-08-06T13:14:55;97717.13;;;21.88;56.59
19259;BME280;9763;48.780;9.212;2023-08-06T13:18:20;97720.50;;;21.97;55.87
19259;BME280;9763;48.780;9.212;2023-08-06T13:22:03;97717.28;;;22.02;55.99
19259;BME280;9763;48.780;9.212;2023-08-06T13:25:28;97720.22;;;22.07;54.92
19259;BME280;9763;48.780;9.212;2023-08-06T13:28:52;97714.63;;;22.02;55.54
19259;BME280;9763;48.780;9.212;2023-08-06T13:32:16;97716.94;;;21.90;54.62
19259;BME280;9763;48.780;9.212;2023-08-06T13:35:39;97721.91;;;22.14;55.78
19259;BME280;9763;48.780;9.212;2023-08-06T13:39:04;97728.38;;;22.26;55.00
19259;BME280;9763;48.780;9.212;2023-08-06T13:42:29;97725.47;;;22.21;54.11
19259;BME280;9763;48.780;9.212;2023-08-06T13:45:54;97738.41;;;22.10;54.33
19259;BME280;9763;48.780;9.212;2023-08-06T13:49:18;97723.69;;;22.07;54.76
19259;BME280;9763;48.780;9.212;2023-08-06T13:52:43;97737.19;;;21.91;53.57
19259;BME280;9763;48.780;9.212;2023-08-06T13:56:09;97736.97;;;21.71;52.54
19259;BME280;9763;48.780;9.212;2023-08-06T13:59:33;97741.81;;;21.68;53.75
19259;BME280;9763;48.780;9.212;2023-08-06T14:02:56;97737.22;;;21.62;52.94
19259;BME280;9763;48.780;9.212;2023-08-06T14:06:21;97745.59;;;21.59;53.77
19259;BME280;9763;48.780;9.212;2023-08-06T14:09:44;97752.63;;;21.51;53.92
19259;BME280;9763;48.780;9.212;2023-08-06T14:13:10;97763.91;;;21.39;54.32
19259;BME280;9763;48.780;9.212;2023-08-06T14:16:35;97770.16;;;21.31;53.77
19259;BME280;9763;48.780;9.212;2023-08-06T14:19:59;97714.19;;;21.03;53.42
19259;BME280;9763;48.780;9.212;2023-08-06T14:23:23;97767.66;;;21.44;53.70
19259;BME280;9763;48.780;9.212;2023-08-06T14:26:46;97773.69;;;21.53;53.05
19259;BME280;9763;48.780;9.212;2023-08-06T14:30:12;97777.81;;;21.55;53.56
19259;BME280;9763;48.780;9.212;2023-08-06T14:33:36;97766.28;;;21.63;53.95
19259;BME280;9763;48.780;9.212;2023-08-06T14:36:59;97771.22;;;21.66;53.92
19259;BME280;9763;48.780;9.212;2023-08-06T14:40:23;97785.97;;;21.69;52.88
19259;BME280;9763;48.780;9.212;2023-08-06T14:43:48;97794.41;;;21.58;53.06
19259;BME280;9763;48.780;9.212;2023-08-06T14:47:14;97781.66;;;21.38;52.47
19259;BME280;9763;48.780;9.212;2023-08-06T14:50:38;97816.06;;;21.17;53.81
19259;BME280;9763;48.780;9.212;2023-08-06T14:54:03;97825.88;;;20.94;54.52
19259;BME280;9763;48.780;9.212;2023-08-06T14:57:27;97827.91;;;20.92;54.55
19259;BME280;9763;48.780;9.212;2023-08-06T15:00:51;97838.34;;;20.93;54.69
19259;BME280;9763;48.780;9.212;2023-08-06T15:04:17;97836.84;;;20.91;55.45
19259;BME280;9763;48.780;9.212;2023-08-06T15:07:40;97848.72;;;20.80;55.66
19259;BME280;9763;48.780;9.212;2023-08-06T15:11:04;97841.41;;;20.59;55.61
19259;BME280;9763;48.780;9.212;2023-08-06T15:14:28;97844.47;;;20.48;56.50
19259;BME280;9763;48.780;9.212;2023-08-06T15:17:52;97844.97;;;20.52;56.28
19259;BME280;9763;48.780;9.212;2023-08-06T15:21:17;97851.03;;;20.60;56.22
19259;BME280;9763;48.780;9.212;2023-08-06T15:24:41;97852.63;;;20.69;56.49
19259;BME280;9763;48.780;9.212;2023-08-06T15:28:05;97840.47;;;20.75;56.31
19259;BME280;9763;48.780;9.212;2023-08-06T15:31:37;97846.44;;;20.77;56.23
19259;BME280;9763;48.780;9.212;2023-08-06T15:35:01;97836.94;;;20.82;55.32
19259;BME280;9763;48.780;9.212;2023-08-06T15:38:27;97845.53;;;20.84;55.30
19259;BME280;9763;48.780;9.212;2023-08-06T15:41:51;97852.16;;;20.89;55.63
19259;BME280;9763;48.780;9.212;2023-08-06T15:45:14;97848.47;;;20.90;55.43
19259;BME280;9763;48.780;9.212;2023-08-06T15:48:38;97858.06;;;20.91;55.48
19259;BME280;9763;48.780;9.212;2023-08-06T15:52:03;97858.56;;;20.94;56.05
19259;BME280;9763;48.780;9.212;2023-08-06T15:55:28;97857.84;;;21.00;55.04
19259;BME280;9763;48.780;9.212;2023-08-06T15:58:51;97862.34;;;21.00;55.43
19259;BME280;9763;48.780;9.212;2023-08-06T16:02:16;97869.75;;;21.04;55.44
19259;BME280;9763;48.780;9.212;2023-08-06T16:05:41;97871.69;;;21.10;55.35
19259;BME280;9763;48.780;9.212;2023-08-06T16:09:05;97876.84;;;21.12;54.56
19259;BME280;9763;48.780;9.212;2023-08-06T16:12:32;97871.41;;;21.05;54.68
19259;BME280;9763;48.780;9.212;2023-08-06T16:15:56;97863.91;;;21.09;53.60
19259;BME280;9763;48.780;9.212;2023-08-06T16:19:20;97877.53;;;21.06;54.01
19259;BME280;9763;48.780;9.212;2023-08-06T16:22:43;97879.53;;;21.04;53.48
19259;BME280;9763;48.780;9.212;2023-08-06T16:26:07;97887.63;;;21.10;53.72
19259;BME280;9763;48.780;9.212;2023-08-06T16:29:33;97890.38;;;21.17;53.48
19259;BME280;9763;48.780;9.212;2023-08-06T16:32:58;97899.72;;;21.13;53.21
19259;BME280;9763;48.780;9.212;2023-08-06T16:36:22;97918.00;;;21.08;52.54
19259;BME280;9763;48.780;9.212;2023-08-06T16:39:45;97922.25;;;20.94;52.89
19259;BME280;9763;48.780;9.212;2023-08-06T16:43:09;97921.81;;;20.82;53.00
19259;BME280;9763;48.780;9.212;2023-08-06T16:46:34;97936.97;;;20.74;53.38
19259;BME280;9763;48.780;9.212;2023-08-06T16:49:59;97935.56;;;20.63;52.72
19259;BME280;9763;48.780;9.212;2023-08-06T16:53:23;97941.03;;;20.54;53.66
19259;BME280;9763;48.780;9.212;2023-08-06T16:56:47;97942.66;;;20.24;54.17
19259;BME280;9763;48.780;9.212;2023-08-06T17:00:12;97936.56;;;19.68;56.62
19259;BME280;9763;48.780;9.212;2023-08-06T17:03:38;97959.53;;;19.27;58.71
19259;BME280;9763;48.780;9.212;2023-08-06T17:07:02;97961.50;;;18.92;60.94
19259;BME280;9763;48.780;9.212;2023-08-06T17:10:26;97969.72;;;18.65;62.85
19259;BME280;9763;48.780;9.212;2023-08-06T17:13:50;97964.84;;;18.52;64.15
19259;BME280;9763;48.780;9.212;2023-08-06T17:17:14;97971.78;;;18.45;65.00
19259;BME280;9763;48.780;9.212;2023-08-06T17:20:41;97979.19;;;18.42;65.91
19259;BME280;9763;48.780;9.212;2023-08-06T17:24:05;97980.00;;;18.42;66.50
19259;BME280;9763;48.780;9.212;2023-08-06T17:27:29;97987.94;;;18.42;65.91
19259;BME280;9763;48.780;9.212;2023-08-06T17:30:53;97996.53;;;18.44;65.50
19259;BME280;9763;48.780;9.212;2023-08-06T17:34:17;97990.13;;;18.47;65.71
19259;BME280;9763;48.780;9.212;2023-08-06T17:37:42;97984.50;;;18.50;64.41
19259;BME280;9763;48.780;9.212;2023-08-06T17:41:06;97990.81;;;18.57;64.22
19259;BME280;9763;48.780;9.212;2023-08-06T17:44:30;97996.97;;;18.65;63.33
19259;BME280;9763;48.780;9.212;2023-08-06T17:47:54;98002.94;;;18.76;62.64
19259;BME280;9763;48.780;9.212;2023-08-06T17:51:18;98007.59;;;18.82;62.41
19259;BME280;9763;48.780;9.212;2023-08-06T17:54:43;98014.56;;;18.83;62.11
19259;BME280;9763;48.780;9.212;2023-08-06T17:58:08;98006.63;;;18.83;61.99
19259;BME280;9763;48.780;9.212;2023-08-06T18:01:32;98013.22;;;18.87;61.28
19259;BME280;9763;48.780;9.212;2023-08-06T18:04:56;98007.94;;;18.87;61.06
19259;BME280;9763;48.780;9.212;2023-08-06T18:08:20;98005.28;;;18.79;61.13
19259;BME280;9763;48.780;9.212;2023-08-06T18:11:45;98013.06;;;18.80;60.75
19259;BME280;9763;48.780;9.212;2023-08-06T18:15:09;98008.88;;;18.69;61.25
19259;BME280;9763;48.780;9.212;2023-08-06T18:18:34;97997.28;;;18.62;60.80